createdAt,value
2023-03-25T00:00:17.394Z,100.00
2023-03-25T00:02:47.674Z,100.00
2023-03-25T00:05:16.787Z,100.00
2023-03-25T00:07:45.220Z,100.00
2023-03-25T00:10:13.767Z,100.00
2023-03-25T00:12:42.716Z,100.00
2023-03-25T00:15:12.305Z,100.00
2023-03-25T00:17:39.817Z,100.00
2023-03-25T00:20:11.444Z,100.00
2023-03-25T00:22:44.408Z,100.00
2023-03-25T00:25:19.226Z,100.00
2023-03-25T00:27:49.010Z,100.00
2023-03-25T00:30:17.318Z,100.00
2023-03-25T00:32:52.978Z,100.00
2023-03-25T00:35:21.589Z,100.00
2023-03-25T00:37:59.957Z,100.00
2023-03-25T00:40:28.737Z,100.00
2023-03-25T00:42:56.661Z,100.00
2023-03-25T00:45:23.919Z,100.00
2023-03-25T00:47:51.401Z,100.00
2023-03-25T00:50:18.487Z,100.00
2023-03-25T00:52:45.552Z,100.00
2023-03-25T00:55:12.594Z,100.00
2023-03-25T00:57:39.752Z,100.00
2023-03-25T01:00:10.025Z,100.00
2023-03-25T01:02:39.475Z,100.00
2023-03-25T01:05:07.669Z,100.00
2023-03-25T01:07:35.709Z,100.00
2023-03-25T01:10:03.470Z,100.00
2023-03-25T01:12:32.367Z,100.00
2023-03-25T01:14:59.427Z,100.00
2023-03-25T01:17:26.501Z,100.00
2023-03-25T01:19:53.513Z,100.00
2023-03-25T01:22:21.013Z,100.00
2023-03-25T01:24:47.980Z,100.00
2023-03-25T01:27:14.945Z,100.00
2023-03-25T01:29:41.987Z,100.00
2023-03-25T01:32:09.052Z,100.00
2023-03-25T01:34:38.693Z,100.00
2023-03-25T01:37:06.502Z,100.00
2023-03-25T01:39:33.663Z,100.00
2023-03-25T01:42:01.168Z,100.00
2023-03-25T01:44:29.226Z,100.00
2023-03-25T01:47:01.830Z,100.00
2023-03-25T01:49:39.212Z,100.00
2023-03-25T01:52:13.800Z,100.00
2023-03-25T01:54:41.895Z,100.00
2023-03-25T01:57:12.459Z,100.00
2023-03-25T01:59:39.983Z,100.00
2023-03-25T02:02:09.689Z,100.00
2023-03-25T02:04:59.212Z,100.00
2023-03-25T02:07:31.085Z,100.00
2023-03-25T02:10:05.179Z,100.00
2023-03-25T02:12:32.196Z,100.00
2023-03-25T02:15:02.453Z,100.00
2023-03-25T02:17:38.555Z,100.00
2023-03-25T02:20:21.336Z,100.00
2023-03-25T02:23:03.715Z,100.00
2023-03-25T02:25:52.385Z,100.00
2023-03-25T02:28:37.078Z,100.00
2023-03-25T02:31:39.025Z,100.00
2023-03-25T02:34:12.940Z,100.00
2023-03-25T02:36:52.549Z,100.00
2023-03-25T02:39:36.065Z,100.00
2023-03-25T02:42:15.778Z,100.00
2023-03-25T02:45:10.346Z,100.00
2023-03-25T02:47:46.778Z,100.00
2023-03-25T02:50:26.803Z,100.00
2023-03-25T02:53:00.765Z,100.00
2023-03-25T02:55:33.622Z,100.00
2023-03-25T02:58:04.518Z,100.00
2023-03-25T03:00:32.802Z,100.00
2023-03-25T03:03:05.148Z,100.00
2023-03-25T03:05:44.100Z,100.00
2023-03-25T03:08:29.824Z,100.00
2023-03-25T03:11:27.418Z,100.00
2023-03-25T03:14:00.370Z,100.00
2023-03-25T03:17:06.887Z,100.00
2023-03-25T03:19:46.523Z,100.00
2023-03-25T03:22:21.392Z,100.00
2023-03-25T03:25:01.875Z,100.00
2023-03-25T03:27:34.985Z,100.00
2023-03-25T03:30:11.542Z,100.00
2023-03-25T03:32:48.509Z,100.00
2023-03-25T03:35:42.236Z,100.00
2023-03-25T03:38:14.703Z,100.00
2023-03-25T03:40:49.509Z,100.00
2023-03-25T03:43:31.440Z,100.00
2023-03-25T03:46:10.619Z,100.00
2023-03-25T03:48:43.050Z,100.00
2023-03-25T03:51:18.703Z,100.00
2023-03-25T03:53:58.425Z,100.00
2023-03-25T03:56:32.388Z,100.00
2023-03-25T03:59:02.610Z,100.00
2023-03-25T04:01:46.119Z,100.00
2023-03-25T04:04:20.466Z,100.00
2023-03-25T04:07:04.667Z,100.00
2023-03-25T04:10:03.054Z,100.00
2023-03-25T04:12:37.693Z,100.00
2023-03-25T04:15:06.892Z,100.00
2023-03-25T04:17:33.895Z,100.00
2023-03-25T04:20:06.755Z,100.00
2023-03-25T04:22:33.713Z,100.00
2023-03-25T04:25:01.157Z,100.00
2023-03-25T04:27:29.973Z,100.00
2023-03-25T04:29:57.847Z,100.00
2023-03-25T04:32:27.986Z,100.00
2023-03-25T04:34:58.437Z,100.00
2023-03-25T04:37:26.535Z,100.00
2023-03-25T04:40:00.491Z,100.00
2023-03-25T04:42:32.979Z,100.00
2023-03-25T04:45:00.548Z,100.00
2023-03-25T04:47:28.267Z,100.00
2023-03-25T04:49:55.637Z,100.00
2023-03-25T04:52:22.585Z,100.00
2023-03-25T04:54:49.598Z,100.00
2023-03-25T04:57:16.607Z,100.00
2023-03-25T04:59:44.118Z,100.00
2023-03-25T05:02:13.704Z,100.00
2023-03-25T05:04:47.944Z,100.00
2023-03-25T05:07:16.474Z,100.00
2023-03-25T05:09:43.611Z,100.00
2023-03-25T05:12:11.682Z,100.00
2023-03-25T05:14:38.781Z,100.00
2023-03-25T05:17:05.787Z,100.00
2023-03-25T05:19:35.460Z,100.00
2023-03-25T05:22:03.231Z,100.00
2023-03-25T05:24:30.663Z,100.00
2023-03-25T05:26:57.614Z,100.00
2023-03-25T05:29:24.717Z,100.00
2023-03-25T05:31:51.733Z,100.00
2023-03-25T05:34:20.802Z,100.00
2023-03-25T05:36:47.850Z,100.00
2023-03-25T05:39:15.452Z,100.00
2023-03-25T05:41:42.554Z,100.00
2023-03-25T05:44:15.611Z,100.00
2023-03-25T05:46:42.780Z,100.00
2023-03-25T05:49:09.788Z,100.00
2023-03-25T05:51:39.442Z,100.00
2023-03-25T05:54:10.893Z,100.00
2023-03-25T05:56:38.668Z,100.00
2023-03-25T05:59:05.717Z,100.00
2023-03-25T06:01:37.564Z,100.00
2023-03-25T06:04:04.846Z,100.00
2023-03-25T06:06:34.167Z,100.00
2023-03-25T06:09:02.420Z,100.00
2023-03-25T06:11:29.933Z,100.00
2023-03-25T06:13:57.178Z,100.00
2023-03-25T06:16:30.157Z,100.00
2023-03-25T06:19:00.104Z,100.00
2023-03-25T06:21:32.985Z,100.00
2023-03-25T06:24:01.495Z,100.00
2023-03-25T06:26:28.799Z,100.00
2023-03-25T06:28:56.019Z,100.00
2023-03-25T06:31:28.285Z,100.00
2023-03-25T06:33:56.790Z,100.00
2023-03-25T06:36:25.688Z,100.00
2023-03-25T06:38:53.784Z,100.00
2023-03-25T06:41:25.900Z,100.00
2023-03-25T06:44:16.876Z,100.00
2023-03-25T06:47:09.774Z,100.00
2023-03-25T06:49:44.848Z,100.00
2023-03-25T06:52:12.261Z,100.00
2023-03-25T06:54:39.670Z,100.00
2023-03-25T06:57:07.018Z,100.00
2023-03-25T06:59:34.105Z,100.00
2023-03-25T07:02:01.298Z,100.00
2023-03-25T07:04:28.304Z,100.00
2023-03-25T07:06:57.675Z,100.00
2023-03-25T07:09:24.883Z,100.00
2023-03-25T07:11:51.834Z,100.00
2023-03-25T07:14:18.770Z,100.00
2023-03-25T07:16:45.826Z,100.00
2023-03-25T07:19:12.770Z,99.40
2023-03-25T07:21:39.826Z,99.30
2023-03-25T07:24:07.227Z,100.00
2023-03-25T07:26:34.249Z,99.90
2023-03-25T07:29:01.297Z,99.10
2023-03-25T07:31:28.427Z,98.90
2023-03-25T07:33:55.858Z,99.10
2023-03-25T07:36:23.799Z,99.50
2023-03-25T07:38:50.850Z,100.00
2023-03-25T07:41:17.930Z,99.80
2023-03-25T07:44:00.552Z,100.00
2023-03-25T07:46:31.815Z,100.00
2023-03-25T07:48:58.842Z,100.00
2023-03-25T07:51:25.879Z,100.00
2023-03-25T07:53:52.841Z,100.00
2023-03-25T07:56:19.872Z,100.00
2023-03-25T07:58:46.919Z,99.00
2023-03-25T08:01:13.950Z,98.70
2023-03-25T08:03:41.114Z,98.80
2023-03-25T08:06:08.580Z,98.50
2023-03-25T08:08:35.857Z,97.40
2023-03-25T08:11:03.148Z,99.50
2023-03-25T08:13:31.151Z,98.60
2023-03-25T08:15:58.301Z,100.00
2023-03-25T08:18:25.709Z,99.60
2023-03-25T08:20:52.722Z,96.30
2023-03-25T08:23:20.391Z,95.90
2023-03-25T08:25:51.821Z,97.60
2023-03-25T08:28:23.798Z,96.30
2023-03-25T08:30:55.151Z,96.70
2023-03-25T08:33:27.314Z,98.40
2023-03-25T08:35:57.441Z,97.50
2023-03-25T08:38:36.604Z,98.80
2023-03-25T08:41:03.899Z,97.20
2023-03-25T08:43:30.833Z,93.90
2023-03-25T08:45:57.819Z,92.40
2023-03-25T08:48:24.941Z,92.90
2023-03-25T08:50:51.932Z,92.60
2023-03-25T08:53:19.090Z,92.70
2023-03-25T08:55:46.087Z,91.60
2023-03-25T08:58:13.136Z,92.90
2023-03-25T09:00:40.272Z,92.00
2023-03-25T09:03:07.671Z,91.10
2023-03-25T09:05:38.165Z,89.00
2023-03-25T09:08:06.274Z,89.60
2023-03-25T09:10:33.824Z,87.10
2023-03-25T09:13:01.686Z,87.00
2023-03-25T09:15:28.756Z,88.20
2023-03-25T09:17:55.760Z,88.80
2023-03-25T09:20:22.777Z,90.50
2023-03-25T09:22:50.237Z,87.50
2023-03-25T09:25:17.343Z,89.50
2023-03-25T09:27:44.343Z,89.20
2023-03-25T09:30:12.702Z,87.10
2023-03-25T09:32:39.699Z,87.00
2023-03-25T09:35:07.156Z,87.50
2023-03-25T09:37:34.143Z,87.00
2023-03-25T09:40:01.331Z,85.80
2023-03-25T09:42:44.602Z,84.90
2023-03-25T09:45:12.440Z,83.80
2023-03-25T09:47:44.847Z,83.60
2023-03-25T09:50:16.202Z,85.10
2023-03-25T09:52:54.253Z,86.70
2023-03-25T09:55:26.233Z,89.20
2023-03-25T09:58:00.796Z,89.90
2023-03-25T10:00:28.067Z,89.00
2023-03-25T10:03:32.975Z,91.10
2023-03-25T10:06:02.858Z,92.40
2023-03-25T10:08:50.906Z,95.20
2023-03-25T10:11:28.699Z,98.00
2023-03-25T10:18:39.285Z,100.00
2023-03-25T10:21:09.006Z,97.30
2023-03-25T10:23:42.907Z,97.20
2023-03-25T10:26:16.545Z,96.00
2023-03-25T10:28:52.921Z,95.20
2023-03-25T10:31:25.449Z,95.50
2023-03-25T10:34:00.042Z,94.10
2023-03-25T10:36:49.352Z,92.30
2023-03-25T10:39:23.409Z,93.40
2023-03-25T10:42:00.570Z,92.00
2023-03-25T10:44:29.050Z,91.90
2023-03-25T10:47:06.773Z,93.90
2023-03-25T10:49:37.580Z,89.70
2023-03-25T10:52:04.912Z,88.40
2023-03-25T10:54:44.917Z,87.60
2023-03-25T10:57:19.600Z,88.50
2023-03-25T11:00:19.776Z,90.40
2023-03-25T11:02:47.859Z,90.60
2023-03-25T11:05:22.340Z,93.60
2023-03-25T11:07:56.342Z,96.00
2023-03-25T11:10:29.774Z,93.30
2023-03-25T11:13:01.811Z,93.00
2023-03-25T11:15:38.176Z,92.40
2023-03-25T11:18:19.115Z,93.70
2023-03-25T11:20:56.772Z,94.10
2023-03-25T11:27:23.586Z,92.20
2023-03-25T11:29:53.440Z,88.40
2023-03-25T11:32:31.929Z,89.30
2023-03-25T11:35:03.721Z,90.60
2023-03-25T11:37:33.956Z,88.50
2023-03-25T11:40:12.300Z,87.80
2023-03-25T11:42:42.781Z,87.70
2023-03-25T11:45:22.348Z,87.60
2023-03-25T11:47:50.141Z,88.20
2023-03-25T11:50:26.394Z,83.80
2023-03-25T11:53:00.489Z,87.10
2023-03-25T11:55:32.770Z,87.50
2023-03-25T11:58:02.166Z,86.40
2023-03-25T12:00:39.613Z,87.40
2023-03-25T12:03:20.718Z,85.70
2023-03-25T12:06:21.785Z,84.20
2023-03-25T12:08:57.824Z,80.90
2023-03-25T12:11:36.954Z,81.60
2023-03-25T12:14:25.249Z,84.30
2023-03-25T12:17:26.402Z,84.50
2023-03-25T12:20:18.825Z,84.40
2023-03-25T12:23:14.021Z,81.60
2023-03-25T12:25:53.994Z,81.50
2023-03-25T12:28:39.580Z,80.60
2023-03-25T12:31:34.483Z,80.50
2023-03-25T12:34:32.766Z,78.80
2023-03-25T12:37:13.954Z,77.80
2023-03-25T12:39:47.586Z,75.60
2023-03-25T12:42:35.581Z,78.90
2023-03-25T12:45:44.665Z,77.70
2023-03-25T12:48:35.907Z,77.40
2023-03-25T12:51:33.023Z,76.30
2023-03-25T12:54:03.093Z,76.60
2023-03-25T12:56:47.447Z,73.40
2023-03-25T13:03:59.489Z,76.50
2023-03-25T13:06:47.968Z,74.20
2023-03-25T13:09:53.786Z,71.10
2023-03-25T13:12:23.805Z,73.70
2023-03-25T13:15:13.633Z,73.80
2023-03-25T13:17:45.106Z,72.70
2023-03-25T13:20:12.603Z,70.30
2023-03-25T13:22:47.194Z,72.60
2023-03-25T13:25:36.749Z,76.90
2023-03-25T13:28:07.195Z,80.70
2023-03-25T13:30:37.581Z,82.00
2023-03-25T13:33:14.050Z,85.60
2023-03-25T13:35:44.758Z,88.80
2023-03-25T13:38:22.378Z,93.20
2023-03-25T13:41:13.113Z,96.80
2023-03-25T13:44:03.349Z,97.90
2023-03-25T13:46:55.997Z,96.90
2023-03-25T13:49:55.991Z,98.00
2023-03-25T13:52:28.386Z,95.90
2023-03-25T13:55:01.522Z,94.30
2023-03-25T13:58:02.346Z,91.40
2023-03-25T14:00:56.846Z,92.20
2023-03-25T14:03:54.723Z,89.80
2023-03-25T14:07:03.570Z,92.30
2023-03-25T14:10:08.525Z,86.50
2023-03-25T14:12:37.570Z,85.90
2023-03-25T14:15:33.018Z,83.70
2023-03-25T14:18:01.518Z,84.20
2023-03-25T14:20:40.318Z,85.40
2023-03-25T14:23:15.850Z,86.90
2023-03-25T14:25:50.262Z,86.40
2023-03-25T14:28:29.665Z,86.60
2023-03-25T14:31:14.759Z,85.20
2023-03-25T14:34:00.269Z,84.20
2023-03-25T14:36:52.011Z,86.60
2023-03-25T14:39:25.024Z,82.10
2023-03-25T14:42:02.478Z,77.80
2023-03-25T14:44:33.197Z,80.70
2023-03-25T14:47:20.885Z,79.60
2023-03-25T14:50:27.609Z,79.80
2023-03-25T14:53:01.309Z,76.90
2023-03-25T14:55:43.909Z,74.90
2023-03-25T14:59:05.889Z,74.30
2023-03-25T15:02:25.507Z,72.70
2023-03-25T15:04:57.345Z,71.50
2023-03-25T15:07:47.114Z,73.30
2023-03-25T15:10:32.172Z,71.10
2023-03-25T15:13:07.563Z,70.40
2023-03-25T15:16:04.324Z,73.10
2023-03-25T15:18:40.796Z,75.50
2023-03-25T15:21:10.961Z,72.60
2023-03-25T15:23:53.642Z,71.40
2023-03-25T15:26:38.417Z,70.20
2023-03-25T15:29:11.639Z,70.00
2023-03-25T15:31:57.179Z,71.00
2023-03-25T15:35:02.236Z,70.20
2023-03-25T15:37:56.047Z,69.90
2023-03-25T15:40:32.235Z,72.50
2023-03-25T15:43:39.258Z,73.40
2023-03-25T15:46:45.067Z,74.40
2023-03-25T15:49:36.029Z,73.00
2023-03-25T15:52:19.746Z,73.30
2023-03-25T15:55:46.591Z,73.00
2023-03-25T15:58:59.613Z,74.90
2023-03-25T16:01:32.696Z,76.90
2023-03-25T16:04:26.240Z,73.90
2023-03-25T16:06:56.400Z,77.00
2023-03-25T16:13:26.196Z,78.60
2023-03-25T16:15:56.650Z,75.20
2023-03-25T16:19:22.381Z,73.60
2023-03-25T16:21:54.545Z,73.80
2023-03-25T16:24:26.263Z,76.00
2023-03-25T16:26:53.517Z,75.40
2023-03-25T16:29:23.184Z,75.80
2023-03-25T16:31:58.339Z,75.60
2023-03-25T16:34:27.730Z,77.00
2023-03-25T16:36:56.139Z,76.10
2023-03-25T16:39:24.898Z,76.80
2023-03-25T16:42:08.044Z,76.70
2023-03-25T16:44:35.517Z,78.10
2023-03-25T16:47:03.470Z,76.40
2023-03-25T16:49:34.553Z,78.00
2023-03-25T16:52:07.722Z,77.00
2023-03-25T16:54:38.046Z,77.30
2023-03-25T16:57:09.195Z,76.60
2023-03-25T16:59:37.866Z,77.80
2023-03-25T17:02:22.700Z,77.40
2023-03-25T17:04:51.077Z,77.90
2023-03-25T17:07:21.063Z,76.80
2023-03-25T17:09:52.894Z,76.70
2023-03-25T17:12:22.061Z,76.10
2023-03-25T17:14:51.119Z,75.70
2023-03-25T17:17:41.039Z,75.60
2023-03-25T17:20:16.426Z,77.00
2023-03-25T17:22:59.524Z,76.10
2023-03-25T17:25:27.917Z,77.20
2023-03-25T17:27:57.707Z,78.00
2023-03-25T17:30:40.596Z,78.60
2023-03-25T17:33:31.590Z,78.60
2023-03-25T17:35:58.727Z,78.00
2023-03-25T17:38:34.198Z,77.60
2023-03-25T17:41:09.922Z,79.70
2023-03-25T17:43:42.547Z,78.60
2023-03-25T17:46:10.314Z,79.20
2023-03-25T17:48:37.420Z,79.80
2023-03-25T17:51:04.708Z,77.60
2023-03-25T17:53:31.753Z,79.30
2023-03-25T17:55:59.401Z,77.90
2023-03-25T17:58:26.589Z,78.00
2023-03-25T18:00:53.837Z,78.50
2023-03-25T18:03:23.922Z,80.00
2023-03-25T18:05:54.161Z,79.90
2023-03-25T18:08:23.250Z,80.20
2023-03-25T18:10:52.646Z,79.60
2023-03-25T18:13:21.787Z,80.00
2023-03-25T18:15:49.159Z,80.20
2023-03-25T18:18:19.120Z,79.00
2023-03-25T18:20:47.371Z,79.20
2023-03-25T18:23:15.597Z,79.70
2023-03-25T18:25:44.929Z,79.20
2023-03-25T18:28:13.501Z,79.40
2023-03-25T18:30:45.636Z,79.40
2023-03-25T18:33:13.657Z,79.80
2023-03-25T18:35:40.692Z,80.90
2023-03-25T18:38:22.929Z,79.90
2023-03-25T18:40:50.784Z,80.40
2023-03-25T18:43:18.252Z,80.50
2023-03-25T18:45:46.771Z,80.30
2023-03-25T18:48:15.347Z,80.30
2023-03-25T18:50:49.578Z,79.80
2023-03-25T18:53:16.829Z,80.10
2023-03-25T18:55:46.041Z,80.70
2023-03-25T18:58:19.936Z,79.90
2023-03-25T19:00:48.391Z,80.20
2023-03-25T19:03:15.833Z,80.10
2023-03-25T19:05:43.429Z,81.30
2023-03-25T19:08:19.118Z,80.70
2023-03-25T19:10:47.492Z,81.20
2023-03-25T19:13:15.966Z,80.10
2023-03-25T19:15:43.392Z,80.70
2023-03-25T19:18:29.241Z,79.80
2023-03-25T19:20:56.223Z,80.00
2023-03-25T19:24:22.257Z,79.40
2023-03-25T19:26:49.198Z,79.80
2023-03-25T19:29:16.456Z,79.80
2023-03-25T19:31:43.731Z,79.80
2023-03-25T19:34:10.963Z,80.00
2023-03-25T19:36:38.170Z,80.50
2023-03-25T19:39:06.020Z,81.00
2023-03-25T19:41:34.924Z,81.30
2023-03-25T19:44:02.085Z,82.10
2023-03-25T19:46:31.624Z,82.50
2023-03-25T19:48:58.700Z,84.10
2023-03-25T19:51:25.660Z,86.40
2023-03-25T19:53:52.665Z,87.70
2023-03-25T19:56:19.680Z,88.20
2023-03-25T19:58:47.066Z,88.80
2023-03-25T20:01:14.181Z,89.30
2023-03-25T20:03:43.145Z,90.50
2023-03-25T20:06:10.339Z,91.60
2023-03-25T20:08:37.273Z,93.10
2023-03-25T20:11:12.106Z,93.70
2023-03-25T20:13:39.279Z,92.20
2023-03-25T20:16:07.090Z,93.00
2023-03-25T20:18:34.115Z,93.90
2023-03-25T20:21:01.270Z,94.50
2023-03-25T20:23:28.282Z,94.50
2023-03-25T20:25:55.560Z,95.50
2023-03-25T20:28:22.851Z,95.50
2023-03-25T20:30:49.914Z,97.10
2023-03-25T20:33:17.424Z,96.70
2023-03-25T20:35:44.621Z,97.60
2023-03-25T20:38:11.765Z,96.10
2023-03-25T20:40:44.703Z,95.50
2023-03-25T20:43:14.529Z,96.30
2023-03-25T20:45:42.937Z,97.00
2023-03-25T20:48:10.106Z,96.80
2023-03-25T20:50:37.316Z,97.10
2023-03-25T20:53:04.464Z,98.10
2023-03-25T20:55:31.693Z,98.20
2023-03-25T20:57:58.581Z,98.40
2023-03-25T21:00:25.487Z,99.20
2023-03-25T21:02:52.692Z,98.40
2023-03-25T21:05:19.962Z,98.80
2023-03-25T21:07:47.121Z,98.90
2023-03-25T21:10:14.555Z,98.90
2023-03-25T21:12:44.681Z,98.20
2023-03-25T21:15:14.694Z,98.30
2023-03-25T21:17:42.249Z,98.60
2023-03-25T21:20:10.208Z,98.40
2023-03-25T21:22:43.270Z,99.10
2023-03-25T21:25:11.660Z,99.30
2023-03-25T21:27:39.923Z,98.50
2023-03-25T21:30:09.778Z,98.40
2023-03-25T21:32:38.084Z,98.40
2023-03-25T21:35:06.139Z,98.70
2023-03-25T21:37:37.765Z,99.00
2023-03-25T21:40:08.334Z,97.80
2023-03-25T21:42:38.540Z,98.40
2023-03-25T21:45:07.961Z,99.10
2023-03-25T21:47:36.263Z,100.00
2023-03-25T21:50:07.373Z,100.00
2023-03-25T21:52:35.391Z,100.00
2023-03-25T21:55:02.440Z,100.00
2023-03-25T21:57:30.739Z,100.00
2023-03-25T21:59:57.999Z,100.00
2023-03-25T22:02:25.920Z,100.00
2023-03-25T22:05:56.235Z,100.00
2023-03-25T22:08:24.364Z,100.00
2023-03-25T22:10:51.672Z,99.90
2023-03-25T22:13:18.540Z,99.40
2023-03-25T22:15:45.595Z,99.90
2023-03-25T22:18:12.517Z,99.10
2023-03-25T22:20:40.482Z,98.90
2023-03-25T22:23:07.436Z,98.30
2023-03-25T22:25:34.394Z,98.60
2023-03-25T22:28:01.746Z,99.10
2023-03-25T22:30:28.734Z,99.00
2023-03-25T22:32:56.144Z,100.00
2023-03-25T22:35:24.005Z,100.00
2023-03-25T22:37:52.883Z,100.00
2023-03-25T22:40:44.376Z,100.00
2023-03-25T22:43:12.248Z,100.00
2023-03-25T22:45:39.255Z,99.80
2023-03-25T22:48:07.318Z,100.00
2023-03-25T22:50:34.847Z,99.90
2023-03-25T22:53:01.905Z,100.00
2023-03-25T22:55:28.871Z,100.00
2023-03-25T23:02:15.548Z,100.00
2023-03-25T23:04:42.927Z,100.00
2023-03-25T23:07:09.936Z,100.00
2023-03-25T23:09:45.068Z,100.00
2023-03-25T23:12:15.005Z,100.00
2023-03-25T23:14:47.600Z,100.00
2023-03-25T23:17:16.914Z,100.00
2023-03-25T23:19:44.383Z,100.00
2023-03-25T23:22:11.530Z,100.00
2023-03-25T23:24:38.807Z,100.00
2023-03-25T23:27:08.394Z,100.00
2023-03-25T23:29:36.664Z,100.00
2023-03-25T23:32:05.977Z,100.00
2023-03-25T23:34:34.156Z,100.00
2023-03-25T23:37:02.704Z,100.00
2023-03-25T23:39:30.284Z,100.00
2023-03-25T23:41:57.438Z,100.00
2023-03-25T23:48:24.602Z,100.00
2023-03-25T23:50:52.607Z,100.00
2023-03-25T23:53:20.460Z,100.00
2023-03-25T23:55:49.220Z,100.00
2023-03-25T23:58:16.302Z,100.00
